Time;durP1;ratioP1;P1;durP2;ratioP2;P2;SDS_P1;SDS_P2;PMS_P1;PMS_P2;Temp;Humidity;BMP_temperature;BMP_pressure;BME280_temperature;BME280_humidity;BME280_pressure;Samples;Min_cycle;Max_cycle;Signal;HPM_P1;HPM_P2
2023/06/27 00:01:20;;;;;;;5.30;2.60;;;;;;;22.92;73.19;98729.66;6221358;23;20219;-89
2023/06/27 00:03:51;;;;;;;12.87;3.83;;;;;;;22.90;73.51;98733.50;6234839;23;20145;-89
2023/06/27 00:06:19;;;;;;;12.13;3.17;;;;;;;22.84;73.27;98727.00;6247835;23;20133;-89
2023/06/27 00:08:49;;;;;;;8.50;2.90;;;;;;;22.85;73.16;98738.53;6220917;23;20211;-89
2023/06/27 00:11:15;;;;;;;17.47;4.10;;;;;;;22.86;73.18;98742.84;6220886;23;20145;-89
2023/06/27 00:13:41;;;;;;;11.70;3.00;;;;;;;22.86;73.30;98737.50;6222097;23;20211;-90
2023/06/27 00:16:12;;;;;;;8.03;3.20;;;;;;;22.79;73.29;98733.84;6247626;23;20203;-89
2023/06/27 00:18:38;;;;;;;9.80;3.63;;;;;;;22.73;73.27;98721.13;6222186;23;20195;-89
2023/06/27 00:21:05;;;;;;;7.37;2.07;;;;;;;22.69;73.61;98733.16;6221045;23;20185;-89
2023/06/27 00:23:33;;;;;;;8.07;3.00;;;;;;;22.62;73.58;98725.81;6220825;23;20160;-89
2023/06/27 00:26:02;;;;;;;7.73;2.67;;;;;;;22.62;73.85;98725.81;6220215;23;20183;-88
2023/06/27 00:28:28;;;;;;;6.37;3.03;;;;;;;22.61;73.80;98728.63;6220505;23;20161;-89
2023/06/27 00:30:53;;;;;;;8.30;2.20;;;;;;;22.60;73.87;98726.94;6220787;23;20145;-89
2023/06/27 00:33:19;;;;;;;11.03;2.73;;;;;;;22.66;73.71;98725.47;6220751;23;20574;-89
2023/06/27 00:35:44;;;;;;;5.23;2.47;;;;;;;22.73;73.72;98731.81;6220736;23;20187;-89
2023/06/27 00:38:10;;;;;;;98.43;34.93;;;;;;;22.76;73.54;98720.81;6221003;23;20149;-89
2023/06/27 00:40:36;;;;;;;34.07;13.50;;;;;;;22.76;73.43;98723.47;6220914;23;20192;-89
2023/06/27 00:43:01;;;;;;;18.40;8.13;;;;;;;22.77;72.96;98725.16;6247015;23;20149;-89
2023/06/27 00:45:26;;;;;;;10.37;3.30;;;;;;;22.78;72.60;98722.31;6220947;23;20153;-89
2023/06/27 00:48:00;;;;;;;9.50;2.50;;;;;;;22.73;72.83;98727.31;6247030;23;20145;-88
2023/06/27 00:50:27;;;;;;;6.13;2.57;;;;;;;22.68;73.08;98728.81;6220973;23;20134;-89
2023/06/27 00:52:53;;;;;;;12.17;2.60;;;;;;;22.66;73.01;98734.34;6247458;23;20165;-89
2023/06/27 00:55:20;;;;;;;5.63;2.40;;;;;;;22.61;73.68;98728.63;6220488;23;20161;-89
2023/06/27 00:57:46;;;;;;;12.17;3.27;;;;;;;22.56;73.72;98728.28;6220888;23;20163;-89
2023/06/27 01:00:16;;;;;;;9.80;3.10;;;;;;;22.53;74.01;98724.13;6220263;23;20259;-89
2023/06/27 01:02:41;;;;;;;13.97;2.93;;;;;;;22.52;73.75;98722.44;6220716;23;20529;-89
2023/06/27 01:05:07;;;;;;;5.97;2.17;;;;;;;22.50;73.52;98720.94;6220481;23;20228;-89
2023/06/27 01:07:48;;;;;;;10.63;2.87;;;;;;;22.49;73.25;98728.09;6220528;23;20176;-88
2023/06/27 01:10:38;;;;;;;5.70;2.47;;;;;;;22.48;72.99;98723.75;6219937;23;20156;-89
2023/06/27 01:13:29;;;;;;;9.60;3.20;;;;;;;22.44;72.97;98722.44;6247160;23;20133;-88
2023/06/27 01:15:59;;;;;;;12.33;3.23;;;;;;;22.41;72.62;98724.59;6246945;23;20557;-88
2023/06/27 01:18:27;;;;;;;8.40;2.43;;;;;;;22.37;72.86;98716.09;6220313;23;20161;-88
2023/06/27 01:20:53;;;;;;;13.47;2.40;;;;;;;22.33;72.76;98724.56;6246649;23;20180;-88
2023/06/27 01:23:25;;;;;;;5.30;2.67;;;;;;;22.30;72.84;98720.41;6220250;23;20152;-88
2023/06/27 01:25:59;;;;;;;7.63;2.10;;;;;;;22.26;72.85;98718.22;6247069;23;20145;-88
2023/06/27 01:28:25;;;;;;;5.50;2.33;;;;;;;22.21;73.58;98720.56;6220085;23;20578;-88
2023/06/27 01:30:50;;;;;;;9.40;2.37;;;;;;;22.21;73.66;98716.06;6246547;23;20620;-88
2023/06/27 01:33:39;;;;;;;7.87;3.10;;;;;;;22.26;73.38;98724.41;6246629;23;20221;-88
2023/06/27 01:36:20;;;;;;;6.03;2.10;;;;;;;22.24;73.56;98721.06;6246738;23;20569;-88
2023/06/27 01:38:54;;;;;;;5.80;2.50;;;;;;;22.24;73.20;98721.06;6246917;23;20137;-88
2023/06/27 01:41:23;;;;;;;11.27;2.43;;;;;;;22.21;73.40;98723.22;6220236;23;20623;-88
2023/06/27 01:43:52;;;;;;;5.97;2.10;;;;;;;22.18;73.08;98719.03;6220010;23;20180;-88
2023/06/27 01:46:19;;;;;;;6.23;2.40;;;;;;;22.14;72.94;98719.53;6246432;23;20160;-88
2023/06/27 01:48:46;;;;;;;11.67;2.00;;;;;;;22.12;73.03;98717.03;6220059;23;20175;-88
2023/06/27 01:51:12;;;;;;;11.57;2.33;;;;;;;22.10;73.38;98719.03;6219783;23;20211;-89
2023/06/27 01:53:37;;;;;;;5.43;2.43;;;;;;;22.08;73.53;98718.38;6220333;23;20519;-88
2023/06/27 01:56:06;;;;;;;8.30;2.63;;;;;;;22.12;73.12;98706.34;6246356;23;20589;-88
2023/06/27 01:58:32;;;;;;;11.87;2.70;;;;;;;22.12;73.15;98708.19;6219903;23;20161;-88
2023/06/27 02:00:57;;;;;;;8.93;2.90;;;;;;;22.07;73.47;98714.00;6246189;23;20608;-88
2023/06/27 02:03:22;;;;;;;6.43;3.37;;;;;;;22.03;73.74;98712.69;6246337;23;20187;-88
2023/06/27 02:05:48;;;;;;;9.00;2.00;;;;;;;22.04;73.99;98715.19;6219822;23;20153;-88
2023/06/27 02:08:13;;;;;;;12.17;2.63;;;;;;;22.01;74.19;98710.16;6219840;23;20153;-88
2023/06/27 02:10:39;;;;;;;7.33;2.27;;;;;;;21.99;74.03;98714.81;6246036;23;20473;-88
2023/06/27 02:13:05;;;;;;;7.97;3.13;;;;;;;22.00;73.77;98711.19;6246202;23;20145;-88
2023/06/27 02:15:30;;;;;;;9.17;2.60;;;;;;;22.03;73.66;98718.84;6246253;23;20153;-88
2023/06/27 02:17:57;;;;;;;14.30;2.60;;;;;;;22.03;73.77;98723.34;6219757;23;20235;-88
2023/06/27 02:20:22;;;;;;;5.83;2.40;;;;;;;22.01;74.10;98726.16;6219576;23;20176;-87
2023/06/27 02:22:48;;;;;;;6.67;2.90;;;;;;;21.99;74.44;98724.66;6246063;23;20211;-88
2023/06/27 02:25:13;;;;;;;8.33;2.40;;;;;;;21.95;74.45;98720.66;6246083;23;20148;-88
2023/06/27 02:27:39;;;;;;;8.93;3.23;;;;;;;21.94;74.69;98732.31;6246111;23;20149;-88
2023/06/27 02:30:05;;;;;;;4.30;2.37;;;;;;;21.90;74.86;98729.16;6220050;23;20153;-88
2023/06/27 02:32:30;;;;;;;4.90;2.73;;;;;;;21.92;75.13;98737.00;6246089;23;20145;-88
2023/06/27 02:34:55;;;;;;;5.27;2.23;;;;;;;21.90;75.43;98729.16;6219632;23;20175;-88
2023/06/27 02:37:21;;;;;;;6.97;2.30;;;;;;;21.89;75.29;98729.31;6246707;23;20149;-88
2023/06/27 02:39:46;;;;;;;9.90;2.60;;;;;;;21.89;75.01;98727.47;6219792;23;20157;-88
2023/06/27 02:42:12;;;;;;;6.63;2.07;;;;;;;21.93;74.99;98738.69;6245980;23;20210;-88
2023/06/27 02:44:37;;;;;;;7.57;3.33;;;;;;;21.94;74.56;98729.66;6219948;23;20646;-88
2023/06/27 02:47:03;;;;;;;6.83;2.27;;;;;;;21.93;74.23;98733.34;6245811;23;20176;-88
2023/06/27 02:49:28;;;;;;;8.60;2.30;;;;;;;21.89;74.64;98731.97;6245432;23;20163;-88
2023/06/27 02:51:53;;;;;;;5.90;2.83;;;;;;;21.85;74.50;98727.94;6245610;23;20185;-88
2023/06/27 02:54:19;;;;;;;4.90;2.07;;;;;;;21.82;74.61;98723.75;6246698;23;20173;-88
2023/06/27 02:56:44;;;;;;;4.37;2.20;;;;;;;21.78;74.73;98726.88;6219422;23;20188;-88
2023/06/27 02:59:10;;;;;;;13.13;2.57;;;;;;;21.76;74.52;98724.41;6219484;23;20631;-88
2023/06/27 03:01:35;;;;;;;14.20;3.80;;;;;;;21.76;74.33;98732.41;6245754;23;20244;-88
2023/06/27 03:04:01;;;;;;;5.73;2.67;;;;;;;21.77;73.99;98727.91;6219369;23;20153;-88
2023/06/27 03:06:26;;;;;;;8.60;2.90;;;;;;;21.80;73.89;98735.59;6219371;23;20152;-88
2023/06/27 03:08:52;;;;;;;7.07;2.50;;;;;;;21.77;73.79;98738.59;6245918;23;20156;-88
2023/06/27 03:11:17;;;;;;;10.00;3.43;;;;;;;21.73;73.86;98730.06;6245859;23;20149;-88
2023/06/27 03:13:43;;;;;;;11.03;2.70;;;;;;;21.71;73.88;98733.88;6245851;23;20150;-87
2023/06/27 03:16:08;;;;;;;7.67;3.07;;;;;;;21.69;74.34;98726.03;6246184;23;20216;-87
2023/06/27 03:18:34;;;;;;;12.23;3.43;;;;;;;21.74;74.45;98736.22;6245811;23;20198;-88
2023/06/27 03:20:59;;;;;;;11.57;2.60;;;;;;;21.78;74.70;98729.56;6245672;23;20227;-88
2023/06/27 03:23:24;;;;;;;14.00;3.13;;;;;;;21.81;74.76;98738.09;6246253;23;20150;-88
2023/06/27 03:25:50;;;;;;;11.17;3.00;;;;;;;21.80;74.77;98740.94;6246184;23;20159;-88
2023/06/27 03:28:15;;;;;;;8.27;3.27;;;;;;;21.77;75.19;98741.25;6219298;23;20486;-88
2023/06/27 03:30:43;;;;;;;10.90;3.70;;;;;;;21.79;75.10;98741.91;6245744;23;20577;-88
2023/06/27 03:33:12;;;;;;;12.10;3.70;;;;;;;21.79;75.13;98742.75;6219270;23;20263;-88
2023/06/27 03:35:37;;;;;;;8.27;4.07;;;;;;;21.79;75.15;98739.25;6219220;23;20158;-87
2023/06/27 03:38:06;;;;;;;9.63;4.33;;;;;;;21.78;75.47;98749.06;6219319;23;20553;-88
2023/06/27 03:40:34;;;;;;;10.97;4.80;;;;;;;21.78;75.36;98754.41;6219116;23;20233;-88
2023/06/27 03:43:17;;;;;;;11.43;4.63;;;;;;;21.78;75.82;98746.41;6245585;23;20588;-88
2023/06/27 03:45:42;;;;;;;11.17;3.50;;;;;;;21.78;75.86;98749.06;6246044;23;20134;-88
2023/06/27 03:48:09;;;;;;;8.37;2.87;;;;;;;21.75;75.98;98740.59;6245453;23;20160;-87
2023/06/27 03:50:36;;;;;;;11.57;3.47;;;;;;;21.71;76.18;98744.53;6245735;23;20173;-88
2023/06/27 03:53:02;;;;;;;12.50;3.17;;;;;;;21.73;76.18;98743.38;6245543;23;20588;-88
2023/06/27 03:55:28;;;;;;;6.93;2.37;;;;;;;21.76;76.65;98745.75;6219179;23;20161;-88
2023/06/27 03:57:53;;;;;;;6.20;2.70;;;;;;;21.79;77.04;98752.59;6245636;23;20222;-88
2023/06/27 04:00:19;;;;;;;9.97;3.40;;;;;;;21.85;77.29;98746.63;6220051;23;20184;-88
2023/06/27 04:02:44;;;;;;;4.33;2.60;;;;;;;21.92;77.60;98745.84;6221061;23;20565;-87
2023/06/27 04:05:10;;;;;;;8.77;3.40;;;;;;;22.01;77.82;98752.06;6248188;23;20224;-88
2023/06/27 04:07:35;;;;;;;10.93;3.60;;;;;;;22.11;77.77;98750.06;6247376;23;20145;-88
2023/06/27 04:10:00;;;;;;;10.80;3.17;;;;;;;22.20;77.62;98746.41;6248141;23;20149;-87
2023/06/27 04:12:26;;;;;;;7.13;4.13;;;;;;;22.24;78.10;98750.44;6220797;23;20153;-87
2023/06/27 04:14:51;;;;;;;10.07;3.80;;;;;;;22.30;78.82;98741.75;6248040;23;20149;-88
2023/06/27 04:17:17;;;;;;;15.73;3.43;;;;;;;22.38;78.52;98744.44;6221309;23;20157;-88
2023/06/27 04:19:42;;;;;;;9.03;3.63;;;;;;;22.46;78.58;98748.97;6220828;23;20603;-87
2023/06/27 04:22:07;;;;;;;10.37;4.00;;;;;;;22.47;78.99;98755.97;6222087;23;20188;-88
2023/06/27 04:24:33;;;;;;;5.93;2.97;;;;;;;22.52;78.98;98749.16;6247647;23;20149;-88
2023/06/27 04:26:58;;;;;;;10.33;3.37;;;;;;;22.61;79.30;98750.00;6247547;23;20214;-87
2023/06/27 04:29:24;;;;;;;14.70;3.63;;;;;;;22.71;79.50;98752.53;6247133;23;20456;-88
2023/06/27 04:31:50;;;;;;;11.80;4.00;;;;;;;22.77;79.60;98752.72;6220714;23;20156;-88
2023/06/27 04:34:16;;;;;;;15.47;3.90;;;;;;;22.83;79.58;98756.53;6247057;23;20149;-88
2023/06/27 04:36:41;;;;;;;12.40;3.47;;;;;;;22.89;79.98;98759.38;6247152;23;20160;-88
2023/06/27 04:39:09;;;;;;;12.97;3.57;;;;;;;22.98;79.63;98762.91;6247437;23;20582;-88
2023/06/27 04:41:34;;;;;;;8.60;3.83;;;;;;;23.09;79.68;98754.53;6220565;23;20531;-88
2023/06/27 04:43:59;;;;;;;8.77;3.87;;;;;;;23.17;80.05;98759.84;6247080;23;20603;-88
2023/06/27 04:46:29;;;;;;;10.10;4.60;;;;;;;23.25;80.69;98758.00;6246967;23;20222;-88
2023/06/27 04:49:01;;;;;;;9.03;3.57;;;;;;;23.46;79.93;98759.34;6247118;23;20521;-87
2023/06/27 04:51:27;;;;;;;6.93;3.93;;;;;;;23.54;78.58;98759.31;6247082;23;20167;-88
2023/06/27 04:53:53;;;;;;;6.63;3.13;;;;;;;23.65;78.43;98770.50;6220433;23;20656;-88
2023/06/27 04:56:19;;;;;;;5.77;3.57;;;;;;;23.76;78.93;98775.47;6246917;23;20173;-88
2023/06/27 04:58:45;;;;;;;11.10;3.77;;;;;;;23.91;77.19;98772.06;6220445;23;20237;-88
2023/06/27 05:01:10;;;;;;;8.07;3.30;;;;;;;24.04;77.62;98783.06;6220334;23;20224;-88
2023/06/27 05:03:39;;;;;;;10.57;3.23;;;;;;;24.18;76.22;98779.69;6246916;23;20623;-89
2023/06/27 05:06:07;;;;;;;8.97;3.53;;;;;;;24.19;74.71;98779.50;6246868;23;20149;-89
2023/06/27 05:08:35;;;;;;;7.23;3.07;;;;;;;24.21;74.60;98782.03;6221503;23;20185;-89
2023/06/27 05:11:00;;;;;;;6.27;3.10;;;;;;;24.27;74.95;98783.97;6246657;23;20160;-89
2023/06/27 05:13:26;;;;;;;7.67;2.80;;;;;;;24.39;75.32;98787.94;6247424;23;20149;-90
2023/06/27 05:15:51;;;;;;;8.93;4.10;;;;;;;24.51;76.00;98791.03;6220630;23;20604;-89
2023/06/27 05:18:17;;;;;;;7.63;3.27;;;;;;;24.67;72.42;98794.47;6221486;23;20236;-91
2023/06/27 05:20:43;;;;;;;6.73;3.30;;;;;;;24.75;72.88;98798.94;6220397;23;20177;-91
2023/06/27 05:23:09;;;;;;;9.03;3.97;;;;;;;24.74;73.13;98798.09;6247000;23;20160;-91
2023/06/27 05:25:34;;;;;;;9.17;3.93;;;;;;;24.85;74.42;98804.91;6246627;23;20613;-90
2023/06/27 05:28:00;;;;;;;10.70;4.23;;;;;;;24.89;73.65;98807.06;6246985;23;20511;-91
2023/06/27 05:30:27;;;;;;;7.37;4.53;;;;;;;25.03;74.22;98802.75;6247114;23;20161;-90
2023/06/27 05:32:53;;;;;;;10.07;5.00;;;;;;;25.13;72.72;98800.66;6246771;23;20203;-90
2023/06/27 05:35:18;;;;;;;8.23;5.00;;;;;;;25.25;72.74;98809.13;6246647;23;20161;-91
2023/06/27 05:37:44;;;;;;;9.40;4.70;;;;;;;25.44;72.88;98795.19;6246730;23;20191;-90
2023/06/27 05:40:10;;;;;;;9.90;5.70;;;;;;;25.54;72.50;98796.63;6246824;23;20177;-90
2023/06/27 05:42:36;;;;;;;7.77;4.33;;;;;;;25.47;69.68;98798.34;6244798;23;20561;-88
2023/06/27 05:45:02;;;;;;;10.90;4.47;;;;;;;25.57;71.07;98800.78;6219910;23;20164;-89
2023/06/27 05:47:27;;;;;;;6.77;3.80;;;;;;;25.71;70.77;98801.81;6219537;23;20156;-88
2023/06/27 05:49:54;;;;;;;6.10;3.67;;;;;;;25.87;70.28;98799.78;6219920;23;20172;-88
2023/06/27 05:52:20;;;;;;;12.30;4.60;;;;;;;26.01;69.16;98804.31;6220406;23;20197;-89
2023/06/27 05:54:46;;;;;;;7.97;4.40;;;;;;;26.05;67.84;98794.00;6219643;23;20589;-88
2023/06/27 05:57:11;;;;;;;9.87;3.90;;;;;;;25.96;68.69;98798.66;6219736;23;20153;-88
2023/06/27 05:59:39;;;;;;;7.07;3.87;;;;;;;26.11;68.29;98804.84;6219678;23;20487;-86
2023/06/27 06:02:05;;;;;;;8.07;4.50;;;;;;;26.23;68.98;98803.38;6246806;23;20181;-88
2023/06/27 06:04:31;;;;;;;7.70;4.33;;;;;;;26.44;69.56;98804.47;6219374;23;20299;-87
2023/06/27 06:06:58;;;;;;;11.07;4.03;;;;;;;26.57;67.26;98810.00;6220133;23;20585;-88
2023/06/27 06:09:24;;;;;;;8.63;3.70;;;;;;;26.61;66.69;98819.34;6219432;23;20157;-88
2023/06/27 06:11:50;;;;;;;7.70;4.07;;;;;;;26.63;65.69;98809.22;6219919;23;20182;-89
2023/06/27 06:14:15;;;;;;;10.63;4.30;;;;;;;26.64;64.33;98819.78;6219966;23;20244;-88
2023/06/27 06:16:42;;;;;;;7.17;3.60;;;;;;;26.69;64.75;98811.16;6219743;23;20180;-88
2023/06/27 06:19:09;;;;;;;6.87;3.70;;;;;;;26.97;66.00;98811.25;6245942;23;20159;-88
2023/06/27 06:21:37;;;;;;;6.00;3.40;;;;;;;27.21;63.55;98813.53;6219533;23;20541;-88
2023/06/27 06:24:03;;;;;;;8.47;4.13;;;;;;;27.41;62.87;98810.00;6219466;23;20580;-88
2023/06/27 06:26:30;;;;;;;5.93;3.67;;;;;;;27.58;62.39;98807.88;6219922;23;20168;-88
2023/06/27 06:28:57;;;;;;;14.27;3.92;;;;;;;27.66;61.66;98798.81;6246415;23;20146;-88
2023/06/27 06:31:24;;;;;;;9.63;3.30;;;;;;;27.86;61.20;98797.06;6245906;23;20169;-88
2023/06/27 06:33:58;;;;;;;5.93;3.28;;;;;;;28.31;59.41;98801.88;6246220;23;20181;-87
2023/06/27 06:36:25;;;;;;;5.22;3.00;;;;;;;28.38;59.58;98808.13;6246024;23;20152;-88
2023/06/27 06:38:52;;;;;;;5.97;3.40;;;;;;;28.73;58.94;98808.88;6246189;23;20293;-87
2023/06/27 06:41:18;;;;;;;6.75;3.42;;;;;;;29.12;58.42;98805.41;6245979;23;20184;-87
2023/06/27 06:44:42;;;;;;;;;;;;;;;;;;;;;
2023/06/27 06:48:00;;;;;;;11.35;3.78;;;;;;;29.63;55.85;98797.53;6234276;23;20224;-89
2023/06/27 06:50:27;;;;;;;5.93;3.13;;;;;;;29.60;52.78;98797.94;6240411;23;20153;-89
2023/06/27 06:52:53;;;;;;;6.70;2.60;;;;;;;29.35;54.02;98800.44;6219623;23;20280;-89
2023/06/27 06:55:22;;;;;;;6.95;2.90;;;;;;;29.39;53.78;98799.00;6219851;23;20179;-90
2023/06/27 06:57:49;;;;;;;5.03;3.00;;;;;;;29.46;52.43;98802.53;6219781;23;20235;-88
2023/06/27 07:00:17;;;;;;;7.80;2.60;;;;;;;29.52;52.76;98800.88;6246026;23;20499;-88
2023/06/27 07:02:44;;;;;;;5.22;2.72;;;;;;;29.43;53.56;98792.13;6245852;23;20156;-88
2023/06/27 07:05:12;;;;;;;4.88;3.17;;;;;;;29.43;53.79;98792.13;6219745;23;20164;-90
2023/06/27 07:07:38;;;;;;;5.70;3.10;;;;;;;29.57;54.93;98796.50;6219645;23;20157;-88
2023/06/27 07:10:05;;;;;;;5.88;2.92;;;;;;;29.69;54.68;98796.69;6246216;23;20150;-88
2023/06/27 07:12:32;;;;;;;5.93;3.25;;;;;;;29.97;54.36;98788.34;6219674;23;20187;-89
2023/06/27 07:14:59;;;;;;;5.70;2.40;;;;;;;30.08;51.50;98793.94;6246053;23;20476;-89
2023/06/27 07:17:26;;;;;;;7.63;2.80;;;;;;;30.18;52.31;98790.75;6246026;23;20149;-89
2023/06/27 07:19:53;;;;;;;6.22;3.42;;;;;;;30.34;50.85;98790.28;6245674;23;20145;-89
2023/06/27 07:22:21;;;;;;;5.95;2.85;;;;;;;30.50;51.55;98795.22;6219338;23;20157;-89
2023/06/27 07:24:48;;;;;;;6.97;2.85;;;;;;;30.67;51.62;98796.38;6219696;23;20157;-89
2023/06/27 07:27:14;;;;;;;5.22;2.53;;;;;;;30.88;51.25;98800.63;6246418;23;20152;-89
2023/06/27 07:29:41;;;;;;;6.30;2.92;;;;;;;31.01;49.70;98801.38;6219227;23;20600;-90
2023/06/27 07:32:11;;;;;;;4.80;2.78;;;;;;;31.00;47.90;98807.84;6245821;23;20220;-90
2023/06/27 07:34:39;;;;;;;9.52;2.90;;;;;;;31.12;49.22;98793.59;6246344;23;20160;-89
2023/06/27 07:37:06;;;;;;;4.95;2.72;;;;;;;31.18;48.92;98798.16;6247738;23;20489;-89
2023/06/27 07:39:33;;;;;;;5.18;2.75;;;;;;;31.44;50.81;98792.50;6247014;23;20149;-89
2023/06/27 07:42:00;;;;;;;5.75;2.50;;;;;;;31.68;45.17;98788.97;6247055;23;20235;-89
2023/06/27 07:44:26;;;;;;;4.82;2.58;;;;;;;31.51;43.30;98793.28;6247417;23;20149;-91
2023/06/27 07:46:53;;;;;;;4.82;2.80;;;;;;;31.56;45.40;98791.59;6247443;23;20149;-90
2023/06/27 07:49:20;;;;;;;3.92;2.10;;;;;;;31.59;41.82;98801.97;6247629;23;20149;-90
2023/06/27 07:51:51;;;;;;;6.72;2.28;;;;;;;31.65;42.85;98791.28;6220507;23;20497;-90
2023/06/27 07:54:19;;;;;;;4.55;2.25;;;;;;;31.82;43.14;98789.66;6247997;23;20156;-90
2023/06/27 07:56:47;;;;;;;5.25;2.13;;;;;;;31.89;39.84;98788.50;6220988;23;20251;-91
2023/06/27 07:59:13;;;;;;;2.83;1.50;;;;;;;32.11;39.93;98794.34;6220710;23;20472;-90
2023/06/27 08:01:40;;;;;;;2.97;1.55;;;;;;;32.24;36.75;98786.06;6246966;23;20177;-90
2023/06/27 08:04:06;;;;;;;5.32;2.25;;;;;;;32.54;40.16;98791.56;6247233;23;20145;-90
2023/06/27 08:06:31;;;;;;;8.15;1.95;;;;;;;32.66;39.19;98787.81;6220638;23;20214;-90
2023/06/27 08:08:57;;;;;;;4.90;2.13;;;;;;;32.91;40.36;98782.25;6247424;23;20149;-90
2023/06/27 08:11:23;;;;;;;3.30;1.70;;;;;;;33.13;38.48;98777.94;6220931;23;20150;-90
2023/06/27 08:13:49;;;;;;;3.63;2.40;;;;;;;33.30;40.26;98783.53;6246612;23;20172;-90
2023/06/27 08:16:14;;;;;;;4.00;2.38;;;;;;;33.33;38.96;98783.88;6247427;23;20141;-90
2023/06/27 08:18:40;;;;;;;4.53;2.10;;;;;;;33.36;37.21;98783.41;6220789;23;20235;-91
2023/06/27 08:21:05;;;;;;;6.32;1.92;;;;;;;33.34;37.68;98784.69;6246874;23;20176;-90
2023/06/27 08:23:31;;;;;;;4.65;2.00;;;;;;;33.33;35.79;98783.88;6247115;23;20156;-90
2023/06/27 08:25:56;;;;;;;4.20;2.03;;;;;;;33.48;39.57;98785.31;6246573;23;20486;-90
2023/06/27 08:28:22;;;;;;;3.33;1.73;;;;;;;33.75;37.67;98781.09;6247071;23;20156;-91
2023/06/27 08:30:47;;;;;;;4.15;1.63;;;;;;;33.99;35.42;98775.34;6247452;23;20227;-91
2023/06/27 08:33:13;;;;;;;6.60;2.55;;;;;;;34.00;34.12;98781.63;6220752;23;20149;-90
2023/06/27 08:35:39;;;;;;;4.57;1.85;;;;;;;33.91;36.53;98781.16;6220347;23;20620;-90
2023/06/27 08:38:04;;;;;;;3.30;1.63;;;;;;;33.87;36.80;98779.19;6246387;23;20224;-90
2023/06/27 08:40:36;;;;;;;4.13;1.60;;;;;;;34.15;36.92;98776.53;6246897;23;20203;-90
2023/06/27 08:43:04;;;;;;;3.90;2.10;;;;;;;33.88;38.54;98781.63;6247424;23;20152;-89
2023/06/27 08:45:30;;;;;;;3.17;1.77;;;;;;;33.93;36.38;98779.06;6246928;23;20203;-90
2023/06/27 08:47:56;;;;;;;3.92;1.70;;;;;;;34.12;36.13;98774.28;6246438;23;20149;-90
2023/06/27 08:50:22;;;;;;;5.50;2.13;;;;;;;34.17;34.92;98779.03;6220495;23;20577;-90
2023/06/27 08:52:54;;;;;;;4.90;2.08;;;;;;;34.36;33.61;98765.00;6245885;23;20161;-91
2023/06/27 08:55:38;;;;;;;5.43;1.95;;;;;;;34.17;35.48;98771.72;6247166;23;20221;-91
2023/06/27 08:58:06;;;;;;;3.65;1.70;;;;;;;33.80;34.64;98767.59;6244666;23;20168;-91
2023/06/27 09:00:33;;;;;;;4.25;1.95;;;;;;;33.97;36.10;98768.50;6244597;23;20205;-90
2023/06/27 09:02:58;;;;;;;3.50;1.83;;;;;;;34.13;34.63;98770.53;6244895;23;20149;-91
2023/06/27 09:05:24;;;;;;;3.28;1.63;;;;;;;34.26;33.44;98759.34;6244701;23;20149;-91
2023/06/27 09:07:50;;;;;;;5.65;2.10;;;;;;;34.34;34.15;98761.69;6219063;23;20495;-91
2023/06/27 09:10:16;;;;;;;5.30;1.90;;;;;;;34.51;33.72;98759.03;6244977;23;20145;-90
2023/06/27 09:12:43;;;;;;;5.15;2.00;;;;;;;34.58;35.68;98757.84;6220101;23;20596;-90
2023/06/27 09:15:10;;;;;;;5.50;2.20;;;;;;;34.67;34.81;98765.63;6246559;23;20658;-91
2023/06/27 09:17:37;;;;;;;4.57;1.95;;;;;;;34.50;35.39;98758.22;6246930;23;20240;-90
2023/06/27 09:20:09;;;;;;;5.53;2.00;;;;;;;34.68;35.24;98765.38;6220096;23;20160;-90
2023/06/27 09:22:36;;;;;;;3.92;1.90;;;;;;;34.81;33.40;98764.22;6246743;23;20168;-91
2023/06/27 09:25:21;;;;;;;3.35;1.73;;;;;;;34.94;34.18;98763.91;6220334;23;20153;-90
2023/06/27 09:27:46;;;;;;;3.33;1.75;;;;;;;34.99;35.36;98762.13;6247010;23;20137;-90
2023/06/27 09:30:13;;;;;;;6.38;1.63;;;;;;;35.19;35.06;98764.41;6220204;23;20196;-90
2023/06/27 09:32:58;;;;;;;4.05;1.63;;;;;;;35.34;34.89;98758.34;6246690;23;20156;-91
2023/06/27 09:35:25;;;;;;;6.50;2.10;;;;;;;35.44;32.92;98753.88;6247406;23;20136;-89
2023/06/27 09:37:52;;;;;;;4.25;2.05;;;;;;;35.57;34.34;98761.75;6246533;23;20159;-90
2023/06/27 09:40:19;;;;;;;5.50;1.67;;;;;;;35.65;33.07;98746.84;6246472;23;20211;-90
2023/06/27 09:42:51;;;;;;;7.03;1.92;;;;;;;35.56;32.68;98753.81;6246841;23;20590;-90
2023/06/27 09:45:17;;;;;;;5.60;1.95;;;;;;;35.58;32.13;98752.50;6219995;23;20543;-90
2023/06/27 09:47:43;;;;;;;3.15;1.75;;;;;;;35.70;32.58;98745.03;6220681;23;20581;-90
2023/06/27 09:50:09;;;;;;;4.15;1.70;;;;;;;35.72;31.81;98747.50;6246373;23;20149;-89
2023/06/27 09:52:34;;;;;;;5.18;1.55;;;;;;;36.01;30.87;98753.66;6246470;23;20161;-91
2023/06/27 09:55:00;;;;;;;4.47;2.25;;;;;;;35.97;31.02;98753.31;6247084;23;20160;-90
2023/06/27 09:57:26;;;;;;;4.20;1.90;;;;;;;36.09;30.59;98750.47;6246185;23;20149;-91
2023/06/27 09:59:59;;;;;;;3.85;1.95;;;;;;;36.08;30.65;98748.84;6246313;23;20145;-91
2023/06/27 10:02:31;;;;;;;2.72;1.55;;;;;;;35.88;32.78;98737.63;6245957;23;20240;-90
2023/06/27 10:04:57;;;;;;;3.95;1.60;;;;;;;35.96;31.13;98745.34;6242390;23;20178;-89
2023/06/27 10:07:24;;;;;;;4.55;1.77;;;;;;;35.60;32.25;98746.78;6219221;23;20249;-90
2023/06/27 10:09:50;;;;;;;2.45;1.67;;;;;;;35.73;31.24;98752.72;6219566;23;20163;-90
2023/06/27 10:12:16;;;;;;;4.50;1.65;;;;;;;35.49;29.76;98751.22;6245841;23;20145;-89
2023/06/27 10:14:43;;;;;;;8.30;1.92;;;;;;;35.48;31.25;98749.59;6246046;23;20176;-89
2023/06/27 10:17:10;;;;;;;3.50;1.63;;;;;;;35.75;31.93;98747.81;6219724;23;20619;-89
2023/06/27 10:19:37;;;;;;;4.43;1.50;;;;;;;35.84;30.92;98741.94;6246145;23;20533;-89
2023/06/27 10:22:08;;;;;;;4.32;1.48;;;;;;;35.93;29.85;98743.97;6246055;23;20620;-90
2023/06/27 10:24:34;;;;;;;4.03;1.75;;;;;;;36.07;30.79;98736.25;6246567;23;20133;-89
2023/06/27 10:27:01;;;;;;;3.70;1.60;;;;;;;36.18;30.67;98730.69;6246029;23;20207;-90
2023/06/27 10:29:31;;;;;;;2.95;1.38;;;;;;;36.29;30.70;98734.34;6246133;23;20149;-89
2023/06/27 10:31:56;;;;;;;3.05;1.60;;;;;;;36.44;30.77;98733.69;6246792;23;20287;-89
2023/06/27 10:34:28;;;;;;;3.30;1.50;;;;;;;36.60;30.76;98724.59;6246251;23;20182;-89
2023/06/27 10:37:04;;;;;;;3.75;1.70;;;;;;;36.54;30.69;98729.19;6246347;23;20129;-89
2023/06/27 10:39:32;;;;;;;4.85;1.75;;;;;;;36.48;29.11;98722.00;6246179;23;20145;-90
2023/06/27 10:42:06;;;;;;;5.32;1.90;;;;;;;36.13;28.32;98716.97;6245875;23;20187;-90
2023/06/27 10:45:00;;;;;;;4.53;1.70;;;;;;;36.17;31.12;98720.81;6245937;23;20144;-90
2023/06/27 10:47:27;;;;;;;2.47;1.52;;;;;;;36.35;29.48;98714.19;6246217;23;20253;-91
2023/06/27 10:50:00;;;;;;;3.53;1.70;;;;;;;36.57;30.27;98717.75;6245950;23;20149;-90
2023/06/27 10:52:26;;;;;;;3.85;2.03;;;;;;;36.34;28.14;98709.84;6245737;23;20180;-89
2023/06/27 10:55:15;;;;;;;4.43;2.00;;;;;;;36.30;29.08;98703.22;6246294;23;20577;-89
2023/06/27 10:57:47;;;;;;;3.80;1.88;;;;;;;36.50;29.48;98700.75;6246186;23;20141;-89
2023/06/27 11:00:22;;;;;;;3.40;1.60;;;;;;;36.60;29.81;98695.38;6245544;23;20159;-91
2023/06/27 11:02:49;;;;;;;5.78;1.55;;;;;;;36.57;29.02;98697.78;6246270;23;20294;-90
2023/06/27 11:05:18;;;;;;;3.65;1.85;;;;;;;36.79;29.86;98699.38;6245754;23;20586;-89
2023/06/27 11:07:54;;;;;;;2.90;1.85;;;;;;;36.70;30.29;98694.63;6245889;23;20169;-90
2023/06/27 11:10:25;;;;;;;3.63;1.90;;;;;;;36.90;30.45;98692.91;6220158;23;20143;-90
2023/06/27 11:12:51;;;;;;;2.67;1.30;;;;;;;37.00;29.07;98691.38;6221307;23;20153;-90
2023/06/27 11:15:17;;;;;;;5.53;1.67;;;;;;;37.22;30.12;98690.16;6221551;23;20192;-90
2023/06/27 11:17:45;;;;;;;3.13;1.67;;;;;;;37.07;30.16;98686.50;6248071;23;20536;-89
2023/06/27 11:20:12;;;;;;;4.75;2.13;;;;;;;36.90;30.58;98681.97;6247656;23;20149;-90
2023/06/27 11:22:37;;;;;;;4.30;1.50;;;;;;;37.12;28.09;98683.81;6221463;23;20477;-90
2023/06/27 11:25:15;;;;;;;4.93;1.67;;;;;;;36.92;28.56;98674.34;6247796;23;20150;-91
2023/06/27 11:27:41;;;;;;;2.95;1.58;;;;;;;36.92;28.63;98671.59;6247778;23;20149;-90
2023/06/27 11:30:07;;;;;;;4.60;1.70;;;;;;;36.89;28.16;98668.59;6247824;23;20587;-90
2023/06/27 11:32:33;;;;;;;2.90;1.70;;;;;;;36.81;27.52;98667.16;6247566;23;20156;-90
2023/06/27 11:34:58;;;;;;;3.25;1.48;;;;;;;36.84;28.44;98657.63;6248089;23;20142;-91
2023/06/27 11:37:24;;;;;;;2.78;1.40;;;;;;;37.11;26.19;98652.13;6247747;23;20145;-90